sensor_id;sensor_type;location;lat;lon;timestamp;pressure;altitude;pressure_sealevel;temperature;humidity
40946;BME280;55635;50.264;11.918;2023-03-03T00:02:20;95904.06;;;3.03;76.26
40946;BME280;55635;50.264;11.918;2023-03-03T00:05:05;95900.81;;;2.80;77.36
40946;BME280;55635;50.264;11.918;2023-03-03T00:07:46;95908.00;;;2.88;76.98
40946;BME280;55635;50.264;11.918;2023-03-03T00:10:29;95904.31;;;3.00;76.32
40946;BME280;55635;50.264;11.918;2023-03-03T00:13:22;95903.38;;;3.01;76.18
40946;BME280;55635;50.264;11.918;2023-03-03T00:18:56;95910.09;;;2.94;76.71
40946;BME280;55635;50.264;11.918;2023-03-03T00:21:44;95907.44;;;2.84;77.36
40946;BME280;55635;50.264;11.918;2023-03-03T00:24:45;95909.81;;;2.97;76.72
40946;BME280;55635;50.264;11.918;2023-03-03T00:27:34;95899.19;;;2.89;77.21
40946;BME280;55635;50.264;11.918;2023-03-03T00:30:24;95910.06;;;2.84;77.11
40946;BME280;55635;50.264;11.918;2023-03-03T00:33:26;95909.66;;;2.89;76.67
40946;BME280;55635;50.264;11.918;2023-03-03T00:39:10;95919.78;;;2.72;77.55
40946;BME280;55635;50.264;11.918;2023-03-03T00:41:56;95912.94;;;2.81;77.62
40946;BME280;55635;50.264;11.918;2023-03-03T00:53:16;95915.50;;;3.02;75.95
40946;BME280;55635;50.264;11.918;2023-03-03T00:55:57;95909.88;;;3.06;75.44
40946;BME280;55635;50.264;11.918;2023-03-03T00:58:39;95906.69;;;3.03;75.87
40946;BME280;55635;50.264;11.918;2023-03-03T01:01:20;95901.84;;;2.98;75.84
40946;BME280;55635;50.264;11.918;2023-03-03T01:04:05;95903.28;;;2.82;75.93
40946;BME280;55635;50.264;11.918;2023-03-03T01:06:46;95900.53;;;2.83;75.99
40946;BME280;55635;50.264;11.918;2023-03-03T01:09:27;95895.94;;;2.96;75.30
40946;BME280;55635;50.264;11.918;2023-03-03T01:12:10;95898.56;;;3.06;74.89
40946;BME280;55635;50.264;11.918;2023-03-03T01:14:51;95898.13;;;3.01;75.26
40946;BME280;55635;50.264;11.918;2023-03-03T01:17:35;95889.13;;;2.94;75.83
40946;BME280;55635;50.264;11.918;2023-03-03T01:20:17;95886.78;;;2.91;76.14
40946;BME280;55635;50.264;11.918;2023-03-03T01:22:59;95890.69;;;3.06;75.60
40946;BME280;55635;50.264;11.918;2023-03-03T01:25:40;95882.03;;;3.05;74.97
40946;BME280;55635;50.264;11.918;2023-03-03T01:28:21;95896.44;;;2.90;76.22
40946;BME280;55635;50.264;11.918;2023-03-03T01:31:04;95893.78;;;2.81;76.62
40946;BME280;55635;50.264;11.918;2023-03-03T01:33:45;95900.03;;;2.89;76.09
40946;BME280;55635;50.264;11.918;2023-03-03T01:36:27;95898.81;;;3.03;75.61
40946;BME280;55635;50.264;11.918;2023-03-03T01:39:10;95905.41;;;2.97;76.24
40946;BME280;55635;50.264;11.918;2023-03-03T01:41:51;95901.81;;;2.89;77.10
40946;BME280;55635;50.264;11.918;2023-03-03T01:44:32;95906.16;;;2.79;77.72
40946;BME280;55635;50.264;11.918;2023-03-03T01:47:23;95880.19;;;2.56;78.35
40946;BME280;55635;50.264;11.918;2023-03-03T01:50:16;95896.22;;;2.72;77.73
40946;BME280;55635;50.264;11.918;2023-03-03T01:53:02;95885.56;;;2.64;77.78
40946;BME280;55635;50.264;11.918;2023-03-03T01:55:45;95895.63;;;2.59;78.31
40946;BME280;55635;50.264;11.918;2023-03-03T01:58:34;95902.88;;;2.56;78.94
40946;BME280;55635;50.264;11.918;2023-03-03T02:01:19;95887.41;;;2.73;77.90
40946;BME280;55635;50.264;11.918;2023-03-03T02:04:01;95893.69;;;2.61;77.72
40946;BME280;55635;50.264;11.918;2023-03-03T02:06:46;95895.44;;;2.82;77.52
40946;BME280;55635;50.264;11.918;2023-03-03T02:09:58;95900.06;;;2.99;77.22
40946;BME280;55635;50.264;11.918;2023-03-03T02:12:56;95902.53;;;3.00;77.64
40946;BME280;55635;50.264;11.918;2023-03-03T02:15:37;95897.44;;;2.99;77.45
40946;BME280;55635;50.264;11.918;2023-03-03T02:18:19;95891.16;;;2.81;78.24
40946;BME280;55635;50.264;11.918;2023-03-03T02:21:13;95889.72;;;2.97;77.87
40946;BME280;55635;50.264;11.918;2023-03-03T02:24:05;95886.03;;;3.09;76.74
40946;BME280;55635;50.264;11.918;2023-03-03T02:26:49;95881.53;;;2.91;77.71
40946;BME280;55635;50.264;11.918;2023-03-03T02:29:30;95889.06;;;3.05;77.84
40946;BME280;55635;50.264;11.918;2023-03-03T02:32:12;95886.13;;;2.98;78.15
40946;BME280;55635;50.264;11.918;2023-03-03T02:34:53;95882.72;;;3.07;77.91
40946;BME280;55635;50.264;11.918;2023-03-03T02:37:34;95891.84;;;2.83;79.52
40946;BME280;55635;50.264;11.918;2023-03-03T02:40:18;95893.25;;;2.87;79.76
40946;BME280;55635;50.264;11.918;2023-03-03T02:43:01;95890.19;;;2.82;80.24
40946;BME280;55635;50.264;11.918;2023-03-03T02:45:46;95892.00;;;2.81;79.80
40946;BME280;55635;50.264;11.918;2023-03-03T02:48:28;95873.78;;;2.80;79.73
40946;BME280;55635;50.264;11.918;2023-03-03T02:51:09;95873.78;;;2.80;79.93
40946;BME280;55635;50.264;11.918;2023-03-03T02:53:51;95868.06;;;2.95;78.90
40946;BME280;55635;50.264;11.918;2023-03-03T02:56:32;95870.84;;;3.03;78.54
40946;BME280;55635;50.264;11.918;2023-03-03T02:59:14;95863.13;;;3.02;78.74
40946;BME280;55635;50.264;11.918;2023-03-03T03:01:59;95846.84;;;2.98;78.45
40946;BME280;55635;50.264;11.918;2023-03-03T03:04:41;95861.78;;;3.07;78.85
40946;BME280;55635;50.264;11.918;2023-03-03T03:07:24;95873.88;;;2.99;78.74
40946;BME280;55635;50.264;11.918;2023-03-03T03:10:06;95882.84;;;3.06;78.78
40946;BME280;55635;50.264;11.918;2023-03-03T03:12:51;95880.84;;;2.89;79.44
40946;BME280;55635;50.264;11.918;2023-03-03T03:15:34;95881.88;;;3.07;79.06
40946;BME280;55635;50.264;11.918;2023-03-03T03:18:16;95886.53;;;2.94;79.92
40946;BME280;55635;50.264;11.918;2023-03-03T03:21:13;95877.19;;;3.01;79.42
40946;BME280;55635;50.264;11.918;2023-03-03T03:23:56;95883.75;;;2.86;79.89
40946;BME280;55635;50.264;11.918;2023-03-03T03:26:38;95867.69;;;2.69;79.85
40946;BME280;55635;50.264;11.918;2023-03-03T03:29:20;95891.50;;;2.66;80.61
40946;BME280;55635;50.264;11.918;2023-03-03T03:32:01;95893.72;;;2.41;82.08
40946;BME280;55635;50.264;11.918;2023-03-03T03:34:42;95887.13;;;2.46;81.69
40946;BME280;55635;50.264;11.918;2023-03-03T03:37:24;95885.03;;;2.40;82.07
40946;BME280;55635;50.264;11.918;2023-03-03T03:40:05;95892.63;;;2.43;82.01
40946;BME280;55635;50.264;11.918;2023-03-03T03:42:47;95898.88;;;2.31;82.82
40946;BME280;55635;50.264;11.918;2023-03-03T03:45:31;95894.91;;;2.57;81.89
40946;BME280;55635;50.264;11.918;2023-03-03T03:48:13;95897.72;;;2.65;81.35
40946;BME280;55635;50.264;11.918;2023-03-03T03:50:55;95893.53;;;2.53;81.18
40946;BME280;55635;50.264;11.918;2023-03-03T03:53:39;95892.22;;;2.68;81.06
40946;BME280;55635;50.264;11.918;2023-03-03T03:56:20;95898.22;;;2.59;81.05
40946;BME280;55635;50.264;11.918;2023-03-03T03:59:07;95892.81;;;2.51;81.50
40946;BME280;55635;50.264;11.918;2023-03-03T04:01:48;95902.63;;;2.59;81.24
40946;BME280;55635;50.264;11.918;2023-03-03T04:04:30;95909.31;;;2.72;80.94
40946;BME280;55635;50.264;11.918;2023-03-03T04:07:12;95895.78;;;2.67;80.38
40946;BME280;55635;50.264;11.918;2023-03-03T04:09:53;95895.94;;;2.75;79.87
40946;BME280;55635;50.264;11.918;2023-03-03T04:12:34;95893.31;;;2.66;79.52
40946;BME280;55635;50.264;11.918;2023-03-03T04:15:20;95892.19;;;2.38;80.51
40946;BME280;55635;50.264;11.918;2023-03-03T04:18:02;95893.56;;;2.42;81.11
40946;BME280;55635;50.264;11.918;2023-03-03T04:20:45;95898.22;;;2.39;81.16
40946;BME280;55635;50.264;11.918;2023-03-03T04:23:26;95896.53;;;2.07;81.53
40946;BME280;55635;50.264;11.918;2023-03-03T04:26:08;95901.50;;;2.31;81.39
40946;BME280;55635;50.264;11.918;2023-03-03T04:28:49;95897.53;;;2.16;81.81
40946;BME280;55635;50.264;11.918;2023-03-03T04:31:31;95896.69;;;2.36;80.70
40946;BME280;55635;50.264;11.918;2023-03-03T04:34:13;95889.19;;;2.43;80.71
40946;BME280;55635;50.264;11.918;2023-03-03T04:36:55;95897.84;;;2.02;81.77
40946;BME280;55635;50.264;11.918;2023-03-03T04:39:36;95894.78;;;2.17;81.05
40946;BME280;55635;50.264;11.918;2023-03-03T04:42:18;95902.69;;;2.27;81.46
40946;BME280;55635;50.264;11.918;2023-03-03T04:44:59;95905.38;;;2.37;80.90
40946;BME280;55635;50.264;11.918;2023-03-03T04:47:41;95891.16;;;2.30;81.02
40946;BME280;55635;50.264;11.918;2023-03-03T04:50:22;95900.81;;;2.29;81.31
40946;BME280;55635;50.264;11.918;2023-03-03T04:53:03;95891.66;;;2.24;81.35
40946;BME280;55635;50.264;11.918;2023-03-03T04:55:44;95892.50;;;2.24;81.19
40946;BME280;55635;50.264;11.918;2023-03-03T04:58:25;95908.94;;;2.15;82.19
40946;BME280;55635;50.264;11.918;2023-03-03T05:01:13;95889.53;;;2.08;81.93
40946;BME280;55635;50.264;11.918;2023-03-03T05:03:55;95905.75;;;2.11;81.87
40946;BME280;55635;50.264;11.918;2023-03-03T05:06:36;95910.88;;;2.13;82.03
40946;BME280;55635;50.264;11.918;2023-03-03T05:09:17;95901.00;;;2.16;81.45
40946;BME280;55635;50.264;11.918;2023-03-03T05:11:58;95901.81;;;2.38;81.41
40946;BME280;55635;50.264;11.918;2023-03-03T05:14:39;95903.97;;;2.33;80.75
40946;BME280;55635;50.264;11.918;2023-03-03T05:17:20;95905.66;;;2.13;81.78
40946;BME280;55635;50.264;11.918;2023-03-03T05:20:02;95915.69;;;1.97;82.28
40946;BME280;55635;50.264;11.918;2023-03-03T05:22:45;95892.16;;;1.97;81.82
40946;BME280;55635;50.264;11.918;2023-03-03T05:25:26;95914.03;;;1.96;81.29
40946;BME280;55635;50.264;11.918;2023-03-03T05:28:09;95918.19;;;1.98;82.10
40946;BME280;55635;50.264;11.918;2023-03-03T05:30:50;95925.22;;;1.98;81.99
40946;BME280;55635;50.264;11.918;2023-03-03T05:33:32;95925.31;;;1.96;81.45
40946;BME280;55635;50.264;11.918;2023-03-03T05:36:13;95918.06;;;2.00;81.25
40946;BME280;55635;50.264;11.918;2023-03-03T05:38:54;95924.13;;;2.21;80.67
40946;BME280;55635;50.264;11.918;2023-03-03T05:41:35;95908.44;;;2.00;80.76
40946;BME280;55635;50.264;11.918;2023-03-03T05:44:16;95929.88;;;2.15;80.58
40946;BME280;55635;50.264;11.918;2023-03-03T05:46:58;95919.31;;;1.85;81.67
40946;BME280;55635;50.264;11.918;2023-03-03T05:49:39;95938.63;;;1.93;81.27
40946;BME280;55635;50.264;11.918;2023-03-03T05:52:20;95946.03;;;1.88;81.95
40946;BME280;55635;50.264;11.918;2023-03-03T05:55:01;95940.38;;;1.83;81.74
40946;BME280;55635;50.264;11.918;2023-03-03T05:57:42;95949.34;;;1.58;82.81
40946;BME280;55635;50.264;11.918;2023-03-03T06:00:24;95952.91;;;1.57;83.38
40946;BME280;55635;50.264;11.918;2023-03-03T06:03:05;95958.47;;;1.53;83.43
40946;BME280;55635;50.264;11.918;2023-03-03T06:05:46;95964.50;;;1.76;83.24
40946;BME280;55635;50.264;11.918;2023-03-03T06:08:27;95975.69;;;1.67;83.24
40946;BME280;55635;50.264;11.918;2023-03-03T06:11:09;95958.81;;;1.71;82.36
40946;BME280;55635;50.264;11.918;2023-03-03T06:13:51;95972.13;;;1.56;83.34
40946;BME280;55635;50.264;11.918;2023-03-03T06:16:33;95970.69;;;1.63;83.01
40946;BME280;55635;50.264;11.918;2023-03-03T06:19:14;95960.00;;;1.67;83.15
40946;BME280;55635;50.264;11.918;2023-03-03T06:21:55;95967.84;;;1.67;83.97
40946;BME280;55635;50.264;11.918;2023-03-03T06:24:39;95967.13;;;1.64;83.30
40946;BME280;55635;50.264;11.918;2023-03-03T06:27:20;95977.34;;;1.68;82.78
40946;BME280;55635;50.264;11.918;2023-03-03T06:30:01;95997.06;;;1.60;83.41
40946;BME280;55635;50.264;11.918;2023-03-03T06:32:43;95997.91;;;1.39;83.80
40946;BME280;55635;50.264;11.918;2023-03-03T06:35:24;95999.94;;;1.46;83.69
40946;BME280;55635;50.264;11.918;2023-03-03T06:38:05;96006.56;;;1.50;83.54
40946;BME280;55635;50.264;11.918;2023-03-03T06:40:46;96007.75;;;1.57;83.48
40946;BME280;55635;50.264;11.918;2023-03-03T06:43:27;95985.47;;;1.42;83.33
40946;BME280;55635;50.264;11.918;2023-03-03T06:46:08;96024.63;;;1.64;83.56
40946;BME280;55635;50.264;11.918;2023-03-03T06:48:49;96013.00;;;1.57;84.16
40946;BME280;55635;50.264;11.918;2023-03-03T06:51:34;96009.69;;;1.55;83.98
40946;BME280;55635;50.264;11.918;2023-03-03T06:54:19;96019.97;;;1.79;83.09
40946;BME280;55635;50.264;11.918;2023-03-03T06:57:16;96027.91;;;1.89;83.26
40946;BME280;55635;50.264;11.918;2023-03-03T07:00:19;96004.16;;;1.81;83.09
40946;BME280;55635;50.264;11.918;2023-03-03T07:03:18;96032.25;;;1.99;82.64
40946;BME280;55635;50.264;11.918;2023-03-03T07:06:12;96025.50;;;2.08;82.17
40946;BME280;55635;50.264;11.918;2023-03-03T07:08:54;96030.47;;;2.00;82.55
40946;BME280;55635;50.264;11.918;2023-03-03T07:11:37;96026.63;;;2.15;81.98
40946;BME280;55635;50.264;11.918;2023-03-03T07:14:20;96030.28;;;2.24;81.59
40946;BME280;55635;50.264;11.918;2023-03-03T07:17:04;96024.44;;;2.31;81.29
40946;BME280;55635;50.264;11.918;2023-03-03T07:19:46;96033.47;;;2.27;81.43
40946;BME280;55635;50.264;11.918;2023-03-03T07:22:36;96031.97;;;2.45;80.78
40946;BME280;55635;50.264;11.918;2023-03-03T07:25:29;96032.56;;;2.49;80.45
40946;BME280;55635;50.264;11.918;2023-03-03T07:28:25;96041.19;;;2.60;80.49
40946;BME280;55635;50.264;11.918;2023-03-03T07:31:26;96043.13;;;2.58;80.59
40946;BME280;55635;50.264;11.918;2023-03-03T07:34:45;96050.84;;;2.60;81.03
40946;BME280;55635;50.264;11.918;2023-03-03T07:37:34;96051.91;;;2.57;80.79
40946;BME280;55635;50.264;11.918;2023-03-03T07:40:37;96040.81;;;2.44;80.82
40946;BME280;55635;50.264;11.918;2023-03-03T07:46:46;96049.03;;;2.60;80.89
40946;BME280;55635;50.264;11.918;2023-03-03T07:49:36;96069.03;;;2.30;80.99
40946;BME280;55635;50.264;11.918;2023-03-03T07:52:39;96050.84;;;2.60;79.88
40946;BME280;55635;50.264;11.918;2023-03-03T07:55:37;96045.66;;;2.69;79.58
40946;BME280;55635;50.264;11.918;2023-03-03T07:58:39;96041.13;;;2.51;79.79
40946;BME280;55635;50.264;11.918;2023-03-03T08:01:43;96044.91;;;2.79;79.05
40946;BME280;55635;50.264;11.918;2023-03-03T08:04:41;96043.38;;;2.76;78.51
40946;BME280;55635;50.264;11.918;2023-03-03T08:07:22;96034.84;;;2.42;78.73
40946;BME280;55635;50.264;11.918;2023-03-03T08:10:35;96042.28;;;2.79;78.11
40946;BME280;55635;50.264;11.918;2023-03-03T08:19:02;96041.75;;;2.75;77.17
40946;BME280;55635;50.264;11.918;2023-03-03T08:21:44;96042.16;;;2.59;77.46
40946;BME280;55635;50.264;11.918;2023-03-03T08:24:28;96025.38;;;2.83;77.37
40946;BME280;55635;50.264;11.918;2023-03-03T08:27:10;96043.06;;;3.11;76.40
40946;BME280;55635;50.264;11.918;2023-03-03T08:29:51;96039.28;;;3.04;76.32
40946;BME280;55635;50.264;11.918;2023-03-03T08:32:32;96029.50;;;3.26;75.67
40946;BME280;55635;50.264;11.918;2023-03-03T08:35:13;96036.75;;;3.44;75.59
40946;BME280;55635;50.264;11.918;2023-03-03T08:37:54;96051.56;;;3.54;74.33
40946;BME280;55635;50.264;11.918;2023-03-03T08:40:36;96049.38;;;3.59;74.57
40946;BME280;55635;50.264;11.918;2023-03-03T08:43:17;96050.31;;;3.58;74.92
40946;BME280;55635;50.264;11.918;2023-03-03T08:46:02;96053.34;;;3.23;73.92
40946;BME280;55635;50.264;11.918;2023-03-03T08:48:44;96070.84;;;3.23;74.62
40946;BME280;55635;50.264;11.918;2023-03-03T08:51:26;96063.09;;;3.21;74.86
40946;BME280;55635;50.264;11.918;2023-03-03T08:54:07;96053.34;;;3.03;75.45
40946;BME280;55635;50.264;11.918;2023-03-03T08:56:48;96073.38;;;3.34;75.04
40946;BME280;55635;50.264;11.918;2023-03-03T08:59:30;96081.78;;;3.07;75.40
40946;BME280;55635;50.264;11.918;2023-03-03T09:02:10;96082.09;;;3.14;75.65
40946;BME280;55635;50.264;11.918;2023-03-03T09:04:52;96075.56;;;2.88;75.60
40946;BME280;55635;50.264;11.918;2023-03-03T09:07:34;96090.81;;;2.62;76.81
40946;BME280;55635;50.264;11.918;2023-03-03T09:10:23;96086.50;;;2.93;76.21
40946;BME280;55635;50.264;11.918;2023-03-03T09:13:14;96087.50;;;3.22;75.28
40946;BME280;55635;50.264;11.918;2023-03-03T09:15:57;96092.31;;;3.17;74.95
40946;BME280;55635;50.264;11.918;2023-03-03T09:18:38;96086.44;;;3.04;75.54
40946;BME280;55635;50.264;11.918;2023-03-03T09:21:29;96087.97;;;3.27;75.67
40946;BME280;55635;50.264;11.918;2023-03-03T09:24:31;96089.31;;;3.52;75.20
40946;BME280;55635;50.264;11.918;2023-03-03T09:30:48;96093.31;;;3.46;74.86
40946;BME280;55635;50.264;11.918;2023-03-03T09:33:47;96094.03;;;3.27;74.59
40946;BME280;55635;50.264;11.918;2023-03-03T09:36:37;96092.97;;;3.40;73.92
40946;BME280;55635;50.264;11.918;2023-03-03T09:39:19;96101.00;;;3.38;74.17
40946;BME280;55635;50.264;11.918;2023-03-03T09:54:22;96103.69;;;3.78;73.31
40946;BME280;55635;50.264;11.918;2023-03-03T09:57:19;96109.53;;;4.01;72.20
40946;BME280;55635;50.264;11.918;2023-03-03T10:00:41;96106.19;;;4.29;71.53
40946;BME280;55635;50.264;11.918;2023-03-03T10:07:42;96085.34;;;4.37;70.60
40946;BME280;55635;50.264;11.918;2023-03-03T10:13:50;96108.56;;;4.42;69.87
40946;BME280;55635;50.264;11.918;2023-03-03T10:17:10;96098.09;;;4.61;69.54
40946;BME280;55635;50.264;11.918;2023-03-03T10:23:00;96100.94;;;4.38;70.46
40946;BME280;55635;50.264;11.918;2023-03-03T10:26:03;96099.03;;;4.50;70.03
40946;BME280;55635;50.264;11.918;2023-03-03T10:29:09;96107.78;;;4.70;69.71
40946;BME280;55635;50.264;11.918;2023-03-03T10:41:59;96115.22;;;4.93;68.75
40946;BME280;55635;50.264;11.918;2023-03-03T10:48:05;96102.94;;;5.23;67.94
40946;BME280;55635;50.264;11.918;2023-03-03T10:51:26;96103.44;;;5.36;67.43
40946;BME280;55635;50.264;11.918;2023-03-03T11:19:36;96082.66;;;5.52;66.28
40946;BME280;55635;50.264;11.918;2023-03-03T11:31:59;96060.69;;;5.90;63.77
40946;BME280;55635;50.264;11.918;2023-03-03T11:38:14;96063.13;;;5.55;64.54
40946;BME280;55635;50.264;11.918;2023-03-03T11:41:07;96060.81;;;5.79;65.14
40946;BME280;55635;50.264;11.918;2023-03-03T11:44:07;96065.22;;;5.88;63.38
40946;BME280;55635;50.264;11.918;2023-03-03T11:50:21;96071.09;;;5.63;64.56
40946;BME280;55635;50.264;11.918;2023-03-03T11:56:41;96075.13;;;6.03;64.32
40946;BME280;55635;50.264;11.918;2023-03-03T12:12:22;96057.97;;;5.63;64.43
40946;BME280;55635;50.264;11.918;2023-03-03T12:15:36;96068.59;;;5.71;64.75
40946;BME280;55635;50.264;11.918;2023-03-03T12:24:17;96059.59;;;5.73;64.81
40946;BME280;55635;50.264;11.918;2023-03-03T12:33:03;96065.00;;;6.09;63.80
40946;BME280;55635;50.264;11.918;2023-03-03T12:35:59;96069.38;;;5.90;64.64
40946;BME280;55635;50.264;11.918;2023-03-03T12:42:57;96070.22;;;5.81;64.70
40946;BME280;55635;50.264;11.918;2023-03-03T12:46:34;96065.19;;;5.97;63.95
40946;BME280;55635;50.264;11.918;2023-03-03T12:48:55;96053.50;;;6.10;63.51
40946;BME280;55635;50.264;11.918;2023-03-03T12:55:55;96056.28;;;6.08;63.91
40946;BME280;55635;50.264;11.918;2023-03-03T13:01:59;96048.84;;;5.57;63.94
40946;BME280;55635;50.264;11.918;2023-03-03T13:07:34;96050.19;;;5.34;66.43
40946;BME280;55635;50.264;11.918;2023-03-03T13:13:17;96050.56;;;5.76;63.86
40946;BME280;55635;50.264;11.918;2023-03-03T13:16:09;96035.69;;;5.57;63.50
40946;BME280;55635;50.264;11.918;2023-03-03T13:19:25;96039.84;;;5.60;64.46
40946;BME280;55635;50.264;11.918;2023-03-03T13:25:52;96037.69;;;6.10;63.42
40946;BME280;55635;50.264;11.918;2023-03-03T13:31:51;96038.94;;;5.78;63.77
40946;BME280;55635;50.264;11.918;2023-03-03T13:34:46;96051.13;;;5.79;63.39
40946;BME280;55635;50.264;11.918;2023-03-03T13:37:42;96043.97;;;5.72;63.18
40946;BME280;55635;50.264;11.918;2023-03-03T13:41:37;96032.56;;;5.81;63.73
40946;BME280;55635;50.264;11.918;2023-03-03T13:44:04;96034.78;;;5.76;64.51
40946;BME280;55635;50.264;11.918;2023-03-03T13:50:22;96024.19;;;5.68;64.24
40946;BME280;55635;50.264;11.918;2023-03-03T14:06:28;96023.13;;;5.51;64.65
40946;BME280;55635;50.264;11.918;2023-03-03T14:09:51;96009.69;;;5.54;64.07
40946;BME280;55635;50.264;11.918;2023-03-03T14:13:07;96020.72;;;5.67;64.55
40946;BME280;55635;50.264;11.918;2023-03-03T14:18:46;96010.28;;;5.48;64.47
40946;BME280;55635;50.264;11.918;2023-03-03T14:25:01;96010.41;;;5.00;65.52
40946;BME280;55635;50.264;11.918;2023-03-03T14:30:41;95983.06;;;4.83;66.31
40946;BME280;55635;50.264;11.918;2023-03-03T14:33:28;95987.06;;;4.87;66.22
40946;BME280;55635;50.264;11.918;2023-03-03T14:36:12;95998.31;;;4.80;66.44
40946;BME280;55635;50.264;11.918;2023-03-03T14:38:55;95996.78;;;4.68;66.37
40946;BME280;55635;50.264;11.918;2023-03-03T14:41:40;96006.03;;;4.72;66.11
40946;BME280;55635;50.264;11.918;2023-03-03T14:44:53;96001.63;;;4.53;66.80
40946;BME280;55635;50.264;11.918;2023-03-03T14:47:36;96000.78;;;4.53;67.37
40946;BME280;55635;50.264;11.918;2023-03-03T14:50:38;96006.31;;;4.59;66.83
40946;BME280;55635;50.264;11.918;2023-03-03T14:53:37;95999.97;;;4.23;68.79
40946;BME280;55635;50.264;11.918;2023-03-03T14:56:29;96000.13;;;4.22;68.71
40946;BME280;55635;50.264;11.918;2023-03-03T14:59:20;95993.72;;;4.05;69.01
40946;BME280;55635;50.264;11.918;2023-03-03T15:05:20;95980.38;;;4.37;67.74
40946;BME280;55635;50.264;11.918;2023-03-03T15:10:48;95998.69;;;3.99;69.38
40946;BME280;55635;50.264;11.918;2023-03-03T15:13:34;95995.13;;;4.09;69.14
40946;BME280;55635;50.264;11.918;2023-03-03T15:16:23;95999.69;;;4.17;69.07
40946;BME280;55635;50.264;11.918;2023-03-03T15:19:53;95998.56;;;4.10;68.96
40946;BME280;55635;50.264;11.918;2023-03-03T15:22:46;95998.78;;;3.78;70.43
40946;BME280;55635;50.264;11.918;2023-03-03T15:25:38;96002.38;;;3.87;69.97
40946;BME280;55635;50.264;11.918;2023-03-03T15:31:51;96000.66;;;3.57;70.55
40946;BME280;55635;50.264;11.918;2023-03-03T15:37:58;95995.13;;;3.50;71.11
40946;BME280;55635;50.264;11.918;2023-03-03T15:40:48;95990.47;;;3.63;70.89
40946;BME280;55635;50.264;11.918;2023-03-03T15:44:11;95992.59;;;3.79;70.48
40946;BME280;55635;50.264;11.918;2023-03-03T16:02:21;95990.78;;;3.89;69.46
40946;BME280;55635;50.264;11.918;2023-03-03T16:05:39;95981.13;;;3.90;69.07
40946;BME280;55635;50.264;11.918;2023-03-03T16:12:07;96000.31;;;3.80;69.07
40946;BME280;55635;50.264;11.918;2023-03-03T16:18:11;96003.81;;;3.20;70.84
40946;BME280;55635;50.264;11.918;2023-03-03T16:25:19;96013.72;;;3.17;70.88
40946;BME280;55635;50.264;11.918;2023-03-03T16:28:12;96002.31;;;3.18;70.87
40946;BME280;55635;50.264;11.918;2023-03-03T16:31:18;96015.56;;;3.26;70.38
40946;BME280;55635;50.264;11.918;2023-03-03T16:34:44;96011.53;;;3.22;71.12
40946;BME280;55635;50.264;11.918;2023-03-03T16:41:00;96019.13;;;3.25;70.87
40946;BME280;55635;50.264;11.918;2023-03-03T16:44:08;96014.03;;;3.23;70.30
40946;BME280;55635;50.264;11.918;2023-03-03T16:46:52;96003.19;;;3.07;70.43
40946;BME280;55635;50.264;11.918;2023-03-03T16:50:21;96008.06;;;2.91;70.72
40946;BME280;55635;50.264;11.918;2023-03-03T16:53:20;96002.44;;;2.96;70.02
40946;BME280;55635;50.264;11.918;2023-03-03T17:02:01;96012.81;;;2.77;71.35
40946;BME280;55635;50.264;11.918;2023-03-03T17:05:16;96019.31;;;2.82;70.62
40946;BME280;55635;50.264;11.918;2023-03-03T17:15:15;96029.34;;;2.77;71.25
40946;BME280;55635;50.264;11.918;2023-03-03T17:18:43;96010.56;;;2.51;71.41
40946;BME280;55635;50.264;11.918;2023-03-03T17:28:30;96033.88;;;2.75;70.97
40946;BME280;55635;50.264;11.918;2023-03-03T17:35:17;96042.69;;;2.95;71.15
40946;BME280;55635;50.264;11.918;2023-03-03T17:56:50;96075.09;;;2.62;70.83
40946;BME280;55635;50.264;11.918;2023-03-03T18:21:34;96072.75;;;2.48;70.40
40946;BME280;55635;50.264;11.918;2023-03-03T18:27:38;96075.38;;;2.48;70.43
40946;BME280;55635;50.264;11.918;2023-03-03T18:31:14;96077.69;;;2.41;70.51
40946;BME280;55635;50.264;11.918;2023-03-03T18:34:29;96076.56;;;2.23;71.05
40946;BME280;55635;50.264;11.918;2023-03-03T18:40:33;96071.22;;;2.13;71.55
40946;BME280;55635;50.264;11.918;2023-03-03T18:49:06;96062.84;;;1.65;71.69
40946;BME280;55635;50.264;11.918;2023-03-03T18:51:49;96069.16;;;1.74;71.79
40946;BME280;55635;50.264;11.918;2023-03-03T18:54:38;96070.09;;;1.73;72.82
40946;BME280;55635;50.264;11.918;2023-03-03T18:57:22;96077.25;;;1.71;72.49
40946;BME280;55635;50.264;11.918;2023-03-03T19:00:22;96079.47;;;1.53;73.13
40946;BME280;55635;50.264;11.918;2023-03-03T19:03:34;96085.53;;;1.76;72.64
40946;BME280;55635;50.264;11.918;2023-03-03T19:09:50;96079.47;;;1.87;72.23
40946;BME280;55635;50.264;11.918;2023-03-03T19:12:59;96082.81;;;1.89;71.61
40946;BME280;55635;50.264;11.918;2023-03-03T19:15:53;96079.69;;;1.84;71.99
40946;BME280;55635;50.264;11.918;2023-03-03T19:21:34;96071.03;;;1.72;72.59
40946;BME280;55635;50.264;11.918;2023-03-03T19:33:58;96088.47;;;2.05;71.86
40946;BME280;55635;50.264;11.918;2023-03-03T19:43:14;96094.66;;;1.93;72.58
40946;BME280;55635;50.264;11.918;2023-03-03T19:56:54;96089.69;;;1.56;73.49
40946;BME280;55635;50.264;11.918;2023-03-03T20:03:33;96092.94;;;1.71;73.25
40946;BME280;55635;50.264;11.918;2023-03-03T20:09:54;96086.59;;;1.85;72.81
40946;BME280;55635;50.264;11.918;2023-03-03T20:31:37;96081.25;;;1.97;72.21
40946;BME280;55635;50.264;11.918;2023-03-03T20:53:49;96071.53;;;1.77;73.20
40946;BME280;55635;50.264;11.918;2023-03-03T21:05:22;96081.38;;;1.85;72.69
40946;BME280;55635;50.264;11.918;2023-03-03T21:08:04;96087.22;;;1.77;73.26
40946;BME280;55635;50.264;11.918;2023-03-03T21:10:56;96084.81;;;1.85;73.43
40946;BME280;55635;50.264;11.918;2023-03-03T21:13:41;96079.25;;;1.79;72.74
40946;BME280;55635;50.264;11.918;2023-03-03T21:19:11;96084.25;;;1.71;72.60
40946;BME280;55635;50.264;11.918;2023-03-03T21:21:53;96085.44;;;1.67;72.30
40946;BME280;55635;50.264;11.918;2023-03-03T21:24:54;96093.88;;;1.59;72.77
40946;BME280;55635;50.264;11.918;2023-03-03T21:27:36;96081.38;;;1.29;73.45